Wardle, United Kingdom
Current Conditions -  °F | °C
As of 5:50 PM on Saturday 25 Oct 2014 (Local Time) from EGCC Reporting Station
Broken Clouds Broken Clouds  
Wind Chill: 55°   Ceiling: 4500
Heat Index: 55°   Visibility: 6mi
Dew Point: 46°   Wind: 17mph
Humidity: 72%   Direction: 230°SW
Pressure: 29.94"   Gusts: NA
Location:  53.65°N, 2.13°W
Report Text: EGCC 251650Z 23015KT 9999 BKN045 13/08 Q1014 NOSIG
Loading
Personal Weather Stations






























Interactive Weather Map
Tropical Storm Tracking
New forecast layout! Learn more

10-Day Weather Forecast

Advertisements
Track Severe Weather on mobile